Weather observations for the past three days for
Cumberland
Imperial (Metric)
Date Time (cdt) Wind (mph) Vis. (mi.) Weather Sky Cond. Temperature (ºF) Relative Humidity Wind Chill (°F) Heat Index (°F) Pressure Precipitation (in)
Air Dwpt 6 hour altimeter (in) sea level (mb) 1 hr 3 hr 6 hr
Max. Min.
03 09:55 S 6 10.00 Fair CLR 80.6 71.6 74% 85 29.9 0.0
03 09:35 S 5 10.00 Fair CLR 80.6 71.6 74% 85 29.9 0.0
03 09:15 Calm 10.00 Partly Cloudy SCT048 SCT050 78.8 69.8 74% 81 29.91 0.0
03 08:55 Calm 10.00 Mostly Cloudy BKN046 BKN050 75.2 69.8 83% 75 29.92 0.0
03 08:35 SE 5 10.00 Mostly Cloudy SCT044 BKN050 BKN110 73.4 68 83% 29.92 0.0
03 08:15 E 6 10.00 Overcast SCT022 BKN037 OVC042 71.6 68 88% 29.94 0.0
03 07:55 Calm 10.00 Overcast BKN024 BKN030 OVC039 71.6 66.2 83% 29.94 0.0
03 07:35 E 5 10.00 Overcast BKN024 BKN034 OVC047 71.6 66.2 83% 29.93 0.0
03 07:15 Calm 10.00 Overcast SCT042 OVC050 71.6 66.2 83% 29.92 0.0
03 06:55 NE 5 10.00 Overcast BKN043 OVC049 69.8 66.2 88% 29.91 0.0
03 06:35 Calm 10.00 Mostly Cloudy BKN041 69.8 64.4 83% 29.91 0.0
03 06:15 Calm 10.00 Fair CLR 68 64.4 88% 29.9 0.0
03 05:55 E 3 10.00 Fair CLR 69.8 64.4 83% 29.91 0.0
03 05:35 NE 5 10.00 Fair CLR 69.8 64.4 83% 29.9 0.0
03 05:15 Calm 10.00 Fair CLR 69.8 64.4 83% 29.9 0.0
03 04:55 E 3 10.00 Fair CLR 69.8 64.4 83% 29.89 0.0
03 04:35 E 3 10.00 Partly Cloudy SCT041 69.8 64.4 83% 29.89 0.0
03 04:15 E 3 10.00 Overcast BKN037 OVC043 71.6 64.4 78% 29.9 0.0
03 03:55 Calm 10.00 Overcast OVC035 71.6 64.4 78% 29.9 0.0
03 03:35 Calm 10.00 Overcast OVC033 71.6 64.4 78% 29.9 0.0
03 03:15 E 3 10.00 Overcast OVC033 71.6 64.4 78% 29.9 0.0
03 02:55 E 5 10.00 Mostly Cloudy BKN034 71.6 64.4 78% 29.9 0.0
03 02:35 E 5 10.00 Partly Cloudy SCT037 SCT120 73.4 62.6 69% 29.91 0.0
03 02:15 NE 6 10.00 Fair CLR 71.6 64.4 78% 29.91 0.0
03 01:55 NE 5 10.00 Partly Cloudy SCT044 71.6 64.4 78% 29.92 0.0
03 01:35 E 5 10.00 Partly Cloudy SCT044 71.6 64.4 78% 29.92 0.0
03 01:15 E 6 10.00 Partly Cloudy SCT044 71.6 68 88% 29.93 0.0
03 00:55 NE 7 10.00 Fair CLR 71.6 68 88% 29.92 0.0
03 00:35 NE 3 10.00 Fair CLR 71.6 68 88% 29.92 0.0
03 00:15 E 5 10.00 Fair CLR 71.6 68 88% 29.93 0.0
02 23:55 Calm 10.00 Fair CLR 71.6 68 88% 29.93 0.0
02 23:35 Calm 10.00 Fair CLR 71.6 68 88% 29.92 0.0
02 23:15 Calm 10.00 Partly Cloudy SCT060 71.6 68 88% 29.92 0.0
02 22:55 NE 3 10.00 Partly Cloudy SCT060 73.4 68 83% 29.92 0.0
02 22:35 Calm 10.00 Fair CLR 71.6 68 88% 29.93 0.0
02 22:15 NE 3 10.00 Fair CLR 73.4 68 83% 29.93 0.0
02 21:55 Calm 10.00 Fair CLR 73.4 69.8 89% 29.93 0.0
02 21:35 Calm 10.00 Fair CLR 73.4 69.8 89% 29.93 0.0
02 21:15 Calm 10.00 Fair CLR 73.4 69.8 89% 29.92 0.0
02 20:55 Calm 10.00 Partly Cloudy SCT110 77 69.8 79% 79 29.92 0.0
02 20:35 Calm 10.00 Partly Cloudy SCT120 77 69.8 79% 79 29.91 0.0
02 20:15 Calm 10.00 Fair CLR 78.8 69.8 74% 81 29.91 0.0
02 19:55 Calm 10.00 Partly Cloudy SCT095 SCT120 77 69.8 79% 79 29.9 0.0
02 19:35 Calm 10.00 Mostly Cloudy SCT095 BKN120 80.6 69.8 70% 84 29.91 0.0
02 19:15 Calm 10.00 Partly Cloudy SCT120 80.6 69.8 70% 84 29.91 0.0
02 18:55 Calm 10.00 Fair CLR 82.4 66.2 58% 85 29.91 0.0
02 18:35 Calm 10.00 Fair CLR 86 66.2 52% 88 29.91 0.0
02 18:15 Calm 10.00 Fair CLR 86 66.2 52% 88 29.91 0.0
02 17:55 Calm 10.00 Fair CLR 86 64.4 49% 87 29.91 0.0
02 17:35 Calm 10.00 Fair CLR 87.8 64.4 46% 89 29.9 0.0
02 17:15 Calm 10.00 Fair CLR 87.8 62.6 43% 88 29.91 0.0
02 16:55 Calm 10.00 Fair CLR 87.8 62.6 43% 88 29.91 0.0
02 16:35 Calm 10.00 Fair CLR 87.8 62.6 43% 88 29.91 0.0
02 16:15 Calm 10.00 Fair CLR 87.8 64.4 46% 89 29.91 0.0
02 15:55 Calm 10.00 Fair CLR 87.8 62.6 43% 88 29.91 0.0
02 15:35 Calm 10.00 Partly Cloudy SCT120 87.8 64.4 46% 89 29.92 0.0
02 15:15 Calm 10.00 Mostly Cloudy BKN120 86 62.6 46% 87 29.92 0.0
02 14:55 Calm 10.00 Mostly Cloudy BKN120 86 62.6 46% 87 29.93 0.0
02 14:35 Calm 10.00 Partly Cloudy SCT120 86 62.6 46% 87 29.93 0.0
02 14:15 S 3 10.00 Fair CLR 86 62.6 46% 87 29.93 0.0
02 13:55 E 3 10.00 Fair CLR 86 64.4 49% 87 29.94 0.0
02 13:35 SW 6 10.00 Fair CLR 86 68 55% 89 29.94 0.0
02 13:15 SE 3 10.00 Fair CLR 84.2 66.2 55% 87 29.95 0.0
02 12:55 Calm 10.00 Fair CLR 84.2 62.6 48% 85 29.95 0.0
02 12:35 Calm 10.00 Fair CLR 82.4 64.4 55% 84 29.95 0.0
02 12:15 Calm 10.00 Fair CLR 82.4 64.4 55% 84 29.96 0.0
02 11:55 Calm 10.00 Fair CLR 80.6 68 66% 83 29.97 0.0
02 11:35 Calm 10.00 Fair CLR 80.6 68 66% 83 29.96 0.0
02 11:15 Calm 10.00 Fair CLR 78.8 68 70% 81 29.96 0.0
02 10:55 Calm 10.00 Fair CLR 78.8 68 70% 81 29.95 0.0
02 10:35 SW 3 10.00 Fair CLR 78.8 68 70% 81 29.95 0.0
02 10:15 Calm 10.00 Fair CLR 77 68 74% 79 29.95 0.0
02 09:55 Calm 10.00 Fair CLR 77 68 74% 79 29.95 0.0
02 09:35 Calm 10.00 Fair CLR 73.4 66.2 78% 29.94 0.0
02 09:15 Calm 10.00 Fair CLR 71.6 68 88% 29.95 0.0
02 08:55 Calm 10.00 Fair CLR 71.6 68 88% 29.95 0.0
02 08:35 Calm 10.00 Fair CLR 69.8 68 94% 29.95 0.0
02 08:15 Calm 10.00 Fair CLR 69.8 68 94% 29.96 0.0
02 07:55 Calm 10.00 Fair CLR 69.8 68 94% 29.98 0.0
02 07:35 SW 5 10.00 Partly Cloudy SCT120 68 68 100% 29.99 0.0
02 07:15 S 3 10.00 Mostly Cloudy BKN110 68 68 100% 29.99 0.0
02 06:55 S 5 10.00 Mostly Cloudy BKN110 68 68 100% 29.98 0.0
02 06:35 Calm 10.00 Mostly Cloudy BKN120 68 68 100% 29.96 0.0
02 06:15 Calm 10.00 Partly Cloudy SCT120 68 66.2 94% 29.94 0.0
02 05:55 Calm 10.00 Partly Cloudy SCT120 68 66.2 94% 29.93 0.0
02 05:35 Calm 10.00 Fair CLR 68 68 100% 29.93 0.0
02 05:15 Calm 10.00 Fair CLR 68 68 100% 29.92 0.0
02 04:55 E 5 10.00 Fair CLR 69.8 66.2 88% 29.93 0.0
02 04:35 E 3 10.00 Partly Cloudy SCT120 69.8 66.2 88% 29.94 0.0
02 04:15 NE 3 10.00 Partly Cloudy SCT120 69.8 66.2 88% 29.96 0.0
02 03:55 Calm 10.00 Light Drizzle CLR 69.8 66.2 88% 29.97 0.0
02 03:35 S 3 10.00 Light Rain CLR 69.8 68 94% 29.97 0.0
02 03:10 S 6 10.00 Light Rain SCT070 SCT095 BKN120 68 68 100% 29.96 0.0
02 02:55 S 3 10.00 Light Rain SCT095 SCT120 68 68 100% 29.96 0.0
02 02:35 S 6 10.00 Light Rain SCT095 BKN120 68 68 100% 29.96 0.0
02 02:15 Calm 10.00 Overcast OVC085 68 68 100% 29.95 0.0
02 01:55 S 5 10.00 Mostly Cloudy BKN085 68 66.2 94% 29.96 0.0
02 01:35 Calm 10.00 Partly Cloudy SCT085 69.8 64.4 83% 29.95 0.0
02 01:15 N 3 10.00 Fair CLR 69.8 64.4 83% 29.94 0.0
02 00:55 Calm 10.00 Partly Cloudy SCT080 69.8 66.2 88% 29.95 0.0
02 00:35 Calm 10.00 Partly Cloudy SCT080 71.6 64.4 78% 29.96 0.0
02 00:15 NE 3 10.00 Partly Cloudy SCT080 69.8 64.4 83% 29.95 0.0
01 23:55 Calm 10.00 Fair CLR 69.8 64.4 83% 29.96 0.0
01 23:35 N 3 10.00 Partly Cloudy SCT075 71.6 66.2 83% 29.95 0.0
01 23:10 Calm 10.00 Partly Cloudy SCT075 69.8 64.4 83% 29.96 0.0
01 22:55 W 3 10.00 Partly Cloudy SCT075 69.8 66.2 88% 29.96 0.0
01 22:35 Calm 10.00 Fair CLR 69.8 68 94% 29.96 0.0
01 22:15 Calm 10.00 Fair CLR 69.8 68 94% 29.96 0.0
01 21:55 Calm 10.00 Partly Cloudy SCT080 71.6 68 88% 29.95 0.0
01 21:35 Calm 10.00 Partly Cloudy SCT080 71.6 68 88% 29.95 0.0
01 21:15 Calm 10.00 Partly Cloudy SCT080 71.6 66.2 83% 29.95 0.0
01 20:55 Calm 10.00 Partly Cloudy SCT080 71.6 64.4 78% 29.95 0.0
01 20:35 W 3 10.00 Partly Cloudy SCT080 73.4 64.4 74% 29.94 0.0
01 20:15 NW 6 10.00 Partly Cloudy SCT080 75.2 62.6 65% 77 29.94 0.0
01 19:35 NW 8 10.00 Fair CLR 77 64.4 65% 79 29.94 0.0
01 19:15 NW 5 10.00 Fair CLR 80.6 66.2 62% 83 29.94 0.0
01 18:55 NW 3 10.00 Fair CLR 80.6 68 66% 83 29.95 0.0
01 18:35 NW 3 10.00 Fair CLR 80.6 64.4 58% 82 29.94 0.0
01 18:15 W 6 10.00 Fair CLR 84.2 64.4 51% 86 29.94 0.0
01 17:55 W 6 10.00 Fair CLR 84.2 64.4 51% 86 29.94 0.0
01 17:35 W 6 10.00 Fair CLR 84.2 62.6 48% 85 29.93 0.0
01 17:15 W 8 10.00 Fair CLR 86 59 40% 85 29.93 0.0
01 16:55 W 6 10.00 Fair CLR 86 59 40% 85 29.93 0.0
01 16:35 W 13 10.00 Fair CLR 87.8 57.2 35% 87 29.94 0.0
01 16:15 W 9 10.00 Fair CLR 87.8 60.8 40% 88 29.94 0.0
01 15:55 W 8 10.00 Fair CLR 86 60.8 43% 86 29.94 0.0
01 15:35 W 7 10.00 Fair CLR 87.8 60.8 40% 88 29.94 0.0
01 15:15 W 8 10.00 Fair CLR 87.8 62.6 43% 88 29.94 0.0
01 14:55 W 7 10.00 Fair CLR 87.8 64.4 46% 89 29.94 0.0
01 14:35 W 7 10.00 Fair CLR 87.8 64.4 46% 89 29.95 0.0
01 14:15 W 6 10.00 Fair CLR 87.8 64.4 46% 89 29.95 0.0
01 13:55 W 7 10.00 Fair CLR 87.8 62.6 43% 88 29.96 0.0
01 13:35 W 7 10.00 Fair CLR 87.8 64.4 46% 89 29.96 0.0
01 13:15 W 9 10.00 Fair CLR 87.8 64.4 46% 89 29.97 0.0
01 12:55 W 9 10.00 Fair CLR 87.8 60.8 40% 88 29.96 0.0
01 12:35 W 5 10.00 Fair CLR 86 64.4 49% 87 29.97 0.0
01 12:15 W 7 10.00 Fair CLR 86 64.4 49% 87 29.98 0.0
01 11:55 SW 7 10.00 Fair CLR 86 66.2 52% 88 29.98 0.0
01 11:35 SW 3 10.00 Fair CLR 86 68 55% 89 29.97 0.0
01 11:15 Calm 10.00 Fair CLR 82.4 68 62% 85 29.98 0.0
01 10:55 NW 3 10.00 Fair CLR 82.4 66.2 58% 85 29.98 0.0
01 10:35 W 6 10.00 Fair CLR 82.4 68 62% 85 29.98 0.0
01 10:15 SW 6 10.00 Fair CLR 80.6 68 66% 83 29.98 0.0
01 09:55 W 5 10.00 Fair CLR 80.6 68 66% 83 29.98 0.0
01 09:35 Calm 10.00 Fair CLR 78.8 71.6 79% 82 29.98 0.0
01 09:15 Calm 10.00 Fair CLR 75.2 69.8 83% 75 29.99 0.0
01 08:55 Calm 10.00 Fair CLR 73.4 69.8 89% 29.99 0.0
01 08:35 Calm 10.00 Fair CLR 71.6 69.8 94% 29.98 0.0
01 08:15 Calm 10.00 Fair CLR 68 68 100% 29.98 0.0
01 07:55 Calm 10.00 Fair CLR 66.2 66.2 100% 29.98 0.0
01 07:35 Calm 7.00 Fair CLR 62.6 62.6 100% 29.98 0.0
01 07:15 Calm 7.00 Fair CLR 62.6 62.6 100% 29.98 0.0
01 06:55 Calm 7.00 Fair CLR 62.6 62.6 100% 29.97 0.0
01 06:35 N 3 10.00 Fair CLR 60.8 60.8 100% 29.97 0.0
01 06:15 Calm 10.00 Fair CLR 60.8 60.8 100% 29.96 0.0
01 05:55 Calm 2.00 Fog/Mist CLR 60.8 60.8 100% 29.95 0.0
01 05:35 Calm 7.00 Fair CLR 60.8 60.8 100% 29.94 0.0
01 05:15 Calm 10.00 Fair CLR 60.8 60.8 100% 29.94 0.0
01 04:55 Calm 10.00 Fair CLR 60.8 60.8 100% 29.94 0.0
01 04:35 Calm 10.00 Fair CLR 60.8 60.8 100% 29.94 0.0
01 04:15 Calm 0.75 Fog/Mist OVC002 60.8 60.8 100% 29.95 0.0
01 03:55 Calm 0.25 Fog OVC002 60.8 60.8 100% 29.94 0.0
01 03:35 Calm 0.50 Fog OVC002 60.8 60.8 100% 29.94 0.0
01 03:15 Calm 0.50 Fog OVC002 62.6 62.6 100% 29.94 0.0
01 02:55 Calm 0.25 Fog OVC002 62.6 62.6 100% 29.95 0.0
01 02:35 Calm 0.25 Fog OVC002 62.6 62.6 100% 29.95 0.0
01 02:15 Calm 10.00 Fair CLR 64.4 64.4 100% 29.95 0.0
01 01:55 Calm 10.00 Fair CLR 64.4 64.4 100% 29.96 0.0
01 01:35 N 5 7.00 Fair CLR 64.4 64.4 100% 29.96 0.0
01 01:15 Calm 10.00 Fair CLR 64.4 64.4 100% 29.96 0.0
01 00:55 Calm 10.00 Fair CLR 66.2 64.4 94% 29.95 0.0
01 00:35 Calm 10.00 Fair CLR 68 64.4 88% 29.95 0.0
01 00:15 Calm 10.00 Fair CLR 68 66.2 94% 29.95 0.0
31 23:55 Calm 10.00 Fair CLR 68 66.2 94% 29.94 0.0
31 23:35 Calm 10.00 Fair CLR 68 66.2 94% 29.94 0.0
31 23:15 Calm 10.00 Fair CLR 68 68 100% 29.94 0.0
31 22:55 Calm 10.00 Fair CLR 69.8 68 94% 29.94 0.0
31 22:35 Calm 10.00 Fair CLR 69.8 68 94% 29.94 0.0
31 22:15 Calm 10.00 Fair CLR 69.8 68 94% 29.93 0.0
31 21:55 Calm 10.00 Fair CLR 71.6 68 88% 29.93 0.0
31 21:35 NW 3 10.00 Fair CLR 71.6 68 88% 29.93 0.0
31 21:15 Calm 10.00 Fair CLR 71.6 69.8 94% 29.93 0.0
31 20:55 SW 3 10.00 Fair CLR 73.4 69.8 89% 29.93 0.0
31 20:30 Calm 10.00 Fair CLR 75.2 69.8 83% 75 29.91 0.0
31 20:15 Calm 10.00 Fair CLR 77 69.8 79% 79 29.91 0.0
31 19:55 Calm 10.00 Fair CLR 78.8 69.8 74% 81 29.91 0.0
31 19:35 Calm 10.00 Fair CLR 78.8 68 70% 81 29.9 0.0
31 19:15 NW 5 10.00 Fair CLR 82.4 69.8 66% 86 29.89 0.0
31 18:35 W 6 10.00 Fair CLR 86 69.8 59% 91 29.89 0.0
31 18:15 W 5 10.00 Fair CLR 87.8 69.8 55% 93 29.89 0.0
31 17:55 Calm 10.00 Fair CLR 89.6 71.6 55% 96 29.89 0.0
31 17:35 Calm 10.00 Fair CLR 89.6 71.6 55% 96 29.89 0.0
31 17:15 W 7 10.00 Fair CLR 89.6 69.8 52% 95 29.89 0.0
31 16:55 W 7 10.00 Fair CLR 89.6 69.8 52% 95 29.89 0.0
31 16:35 W 6 10.00 Fair CLR 89.6 71.6 55% 96 29.88 0.0
31 16:15 NW 5 10.00 Partly Cloudy SCT033 89.6 73.4 59% 98 29.88 0.0
31 15:55 Calm 10.00 Partly Cloudy SCT033 89.6 75.2 63% 100 29.88 0.0
31 15:35 NW 5 10.00 Fair CLR 89.6 75.2 63% 100 29.88 0.0
31 15:15 NW 3 10.00 Partly Cloudy SCT024 87.8 77 70% 100 29.87 0.0
31 14:55 N 5 10.00 Partly Cloudy SCT022 86 77 75% 97 29.88 0.0
31 14:35 NW 3 10.00 Partly Cloudy SCT018 86 77 75% 97 29.88 0.0
31 14:15 Calm 10.00 Mostly Cloudy BKN016 86 77 75% 97 29.87 0.0
31 13:55 Calm 10.00 Overcast OVC014 84.2 77 79% 94 29.87 0.0
31 13:35 NW 3 10.00 Overcast OVC012 82.4 77 84% 91 29.88 0.0
31 13:15 W 5 10.00 Overcast OVC012 82.4 77 84% 91 29.88 0.0
31 12:55 W 3 10.00 Overcast OVC010 82.4 77 84% 91 29.89 0.0
31 12:35 Calm 10.00 Overcast OVC010 80.6 77 89% 87 29.89 0.0
31 12:15 W 6 10.00 Overcast OVC010 80.6 77 89% 87 29.89 0.0
31 11:55 W 9 10.00 Overcast OVC010 80.6 77 89% 87 29.89 0.0
31 11:35 W 6 10.00 Overcast OVC010 80.6 77 89% 87 29.88 0.0
31 11:15 W 5 10.00 Overcast OVC010 80.6 77 89% 87 29.87 0.0
31 10:55 W 5 10.00 Overcast OVC008 80.6 77 89% 87 29.87 0.0
31 10:35 W 5 7.00 Overcast OVC008 78.8 77 94% 83 29.86 0.0
31 10:15 W 3 10.00 Overcast OVC008 78.8 77 94% 83 29.85 0.0
Date Time (cdt) Wind (mph) Vis. (mi.) Weather Sky Cond. Air Dwpt Max. Min. Relative Humidity Wind Chill (°F) Heat Index (°F) altimeter (in) sea level (mb) 1 hr 3 hr 6 hr
6 hour
Temperature (ºF) Pressure Precipitation (in)